sensor_id;sensor_type;location;lat;lon;timestamp;temperature;humidity
46752;DHT22;32497;48.936;9.270;2023-07-31T00:01:52;15.70;74.00
46752;DHT22;32497;48.936;9.270;2023-07-31T00:06:53;15.60;74.40
46752;DHT22;32497;48.936;9.270;2023-07-31T00:11:54;15.50;74.70
46752;DHT22;32497;48.936;9.270;2023-07-31T00:16:56;15.40;75.00
46752;DHT22;32497;48.936;9.270;2023-07-31T00:21:57;15.50;76.20
46752;DHT22;32497;48.936;9.270;2023-07-31T00:26:58;15.40;76.40
46752;DHT22;32497;48.936;9.270;2023-07-31T00:32:03;15.50;76.40
46752;DHT22;32497;48.936;9.270;2023-07-31T00:37:05;15.60;75.20
46752;DHT22;32497;48.936;9.270;2023-07-31T00:42:06;15.50;75.30
46752;DHT22;32497;48.936;9.270;2023-07-31T00:47:09;15.50;75.50
46752;DHT22;32497;48.936;9.270;2023-07-31T00:52:10;15.70;76.10
46752;DHT22;32497;48.936;9.270;2023-07-31T00:57:11;15.70;75.50
46752;DHT22;32497;48.936;9.270;2023-07-31T01:02:14;15.70;76.20
46752;DHT22;32497;48.936;9.270;2023-07-31T01:07:20;15.80;75.60
46752;DHT22;32497;48.936;9.270;2023-07-31T01:12:23;15.70;75.10
46752;DHT22;32497;48.936;9.270;2023-07-31T01:17:26;15.70;76.40
46752;DHT22;32497;48.936;9.270;2023-07-31T01:28:05;15.30;76.50
46752;DHT22;32497;48.936;9.270;2023-07-31T01:33:09;15.30;76.80
46752;DHT22;32497;48.936;9.270;2023-07-31T01:38:10;15.20;76.60
46752;DHT22;32497;48.936;9.270;2023-07-31T01:43:13;15.20;76.40
46752;DHT22;32497;48.936;9.270;2023-07-31T01:48:14;15.20;76.80
46752;DHT22;32497;48.936;9.270;2023-07-31T01:53:16;15.10;76.50
46752;DHT22;32497;48.936;9.270;2023-07-31T01:58:18;15.20;76.40
46752;DHT22;32497;48.936;9.270;2023-07-31T02:03:19;15.20;76.50
46752;DHT22;32497;48.936;9.270;2023-07-31T02:08:20;15.20;76.40
46752;DHT22;32497;48.936;9.270;2023-07-31T02:13:23;15.20;76.50
46752;DHT22;32497;48.936;9.270;2023-07-31T02:18:24;15.10;76.80
46752;DHT22;32497;48.936;9.270;2023-07-31T02:23:25;15.00;77.50
46752;DHT22;32497;48.936;9.270;2023-07-31T02:28:28;14.90;77.70
46752;DHT22;32497;48.936;9.270;2023-07-31T02:33:30;14.90;77.70
46752;DHT22;32497;48.936;9.270;2023-07-31T02:38:31;14.80;77.80
46752;DHT22;32497;48.936;9.270;2023-07-31T02:43:33;14.90;77.60
46752;DHT22;32497;48.936;9.270;2023-07-31T02:48:34;15.00;77.70
46752;DHT22;32497;48.936;9.270;2023-07-31T02:53:35;15.10;77.60
46752;DHT22;32497;48.936;9.270;2023-07-31T02:58:38;15.20;77.60
46752;DHT22;32497;48.936;9.270;2023-07-31T03:03:40;15.10;77.40
46752;DHT22;32497;48.936;9.270;2023-07-31T03:08:42;15.10;77.40
46752;DHT22;32497;48.936;9.270;2023-07-31T03:13:44;15.00;77.40
46752;DHT22;32497;48.936;9.270;2023-07-31T03:18:45;14.90;77.30
46752;DHT22;32497;48.936;9.270;2023-07-31T03:23:47;14.90;77.30
46752;DHT22;32497;48.936;9.270;2023-07-31T03:28:49;14.80;77.60
46752;DHT22;32497;48.936;9.270;2023-07-31T03:33:50;14.80;78.00
46752;DHT22;32497;48.936;9.270;2023-07-31T03:38:52;14.80;78.30
46752;DHT22;32497;48.936;9.270;2023-07-31T03:43:54;14.80;78.10
46752;DHT22;32497;48.936;9.270;2023-07-31T03:48:55;14.70;78.50
46752;DHT22;32497;48.936;9.270;2023-07-31T03:53:57;14.60;79.00
46752;DHT22;32497;48.936;9.270;2023-07-31T03:59:00;14.50;79.00
46752;DHT22;32497;48.936;9.270;2023-07-31T04:04:01;14.60;79.00
46752;DHT22;32497;48.936;9.270;2023-07-31T04:09:02;14.60;79.10
46752;DHT22;32497;48.936;9.270;2023-07-31T04:14:05;14.70;79.70
46752;DHT22;32497;48.936;9.270;2023-07-31T04:19:06;14.60;79.60
46752;DHT22;32497;48.936;9.270;2023-07-31T04:24:07;14.60;78.80
46752;DHT22;32497;48.936;9.270;2023-07-31T04:29:09;14.70;78.90
46752;DHT22;32497;48.936;9.270;2023-07-31T04:34:10;14.70;79.30
46752;DHT22;32497;48.936;9.270;2023-07-31T04:39:11;14.80;79.10
46752;DHT22;32497;48.936;9.270;2023-07-31T04:44:14;14.90;78.40
46752;DHT22;32497;48.936;9.270;2023-07-31T04:49:15;15.00;77.80
46752;DHT22;32497;48.936;9.270;2023-07-31T04:54:16;15.20;77.30
46752;DHT22;32497;48.936;9.270;2023-07-31T04:59:18;15.40;77.80
46752;DHT22;32497;48.936;9.270;2023-07-31T05:04:19;15.60;76.80
46752;DHT22;32497;48.936;9.270;2023-07-31T05:09:21;15.70;77.40
46752;DHT22;32497;48.936;9.270;2023-07-31T05:14:23;16.00;76.70
46752;DHT22;32497;48.936;9.270;2023-07-31T05:19:24;15.90;75.40
46752;DHT22;32497;48.936;9.270;2023-07-31T05:24:25;16.10;74.80
46752;DHT22;32497;48.936;9.270;2023-07-31T05:29:28;16.20;74.50
46752;DHT22;32497;48.936;9.270;2023-07-31T05:34:29;16.20;73.90
46752;DHT22;32497;48.936;9.270;2023-07-31T05:39:30;16.40;74.40
46752;DHT22;32497;48.936;9.270;2023-07-31T05:44:40;16.50;73.50
46752;DHT22;32497;48.936;9.270;2023-07-31T05:49:41;16.90;71.90
46752;DHT22;32497;48.936;9.270;2023-07-31T05:54:42;17.00;71.40
46752;DHT22;32497;48.936;9.270;2023-07-31T05:59:45;17.20;70.30
46752;DHT22;32497;48.936;9.270;2023-07-31T06:04:46;17.30;70.10
46752;DHT22;32497;48.936;9.270;2023-07-31T06:09:47;17.60;69.00
46752;DHT22;32497;48.936;9.270;2023-07-31T06:14:50;17.70;69.20
46752;DHT22;32497;48.936;9.270;2023-07-31T06:19:51;18.10;68.80
46752;DHT22;32497;48.936;9.270;2023-07-31T06:24:52;18.40;67.70
46752;DHT22;32497;48.936;9.270;2023-07-31T06:29:55;18.60;67.10
46752;DHT22;32497;48.936;9.270;2023-07-31T06:34:56;19.00;65.00
46752;DHT22;32497;48.936;9.270;2023-07-31T06:39:57;19.40;63.80
46752;DHT22;32497;48.936;9.270;2023-07-31T06:44:59;19.50;61.20
46752;DHT22;32497;48.936;9.270;2023-07-31T06:50:00;19.60;61.20
46752;DHT22;32497;48.936;9.270;2023-07-31T06:55:02;19.80;60.00
46752;DHT22;32497;48.936;9.270;2023-07-31T07:00:07;19.50;59.40
46752;DHT22;32497;48.936;9.270;2023-07-31T07:05:09;19.60;60.10
46752;DHT22;32497;48.936;9.270;2023-07-31T07:10:10;20.50;58.70
46752;DHT22;32497;48.936;9.270;2023-07-31T07:15:12;20.50;56.00
46752;DHT22;32497;48.936;9.270;2023-07-31T07:20:13;20.40;57.10
46752;DHT22;32497;48.936;9.270;2023-07-31T07:25:15;20.90;56.90
46752;DHT22;32497;48.936;9.270;2023-07-31T07:30:17;21.10;56.40
46752;DHT22;32497;48.936;9.270;2023-07-31T07:35:19;20.90;55.00
46752;DHT22;32497;48.936;9.270;2023-07-31T07:40:20;20.40;56.10
46752;DHT22;32497;48.936;9.270;2023-07-31T07:45:22;20.20;58.40
46752;DHT22;32497;48.936;9.270;2023-07-31T07:50:23;20.40;56.90
46752;DHT22;32497;48.936;9.270;2023-07-31T07:55:24;20.40;56.60
46752;DHT22;32497;48.936;9.270;2023-07-31T08:00:27;20.80;56.00
46752;DHT22;32497;48.936;9.270;2023-07-31T08:05:28;20.70;55.80
46752;DHT22;32497;48.936;9.270;2023-07-31T08:10:29;20.90;56.00
46752;DHT22;32497;48.936;9.270;2023-07-31T08:15:31;20.80;55.90
46752;DHT22;32497;48.936;9.270;2023-07-31T08:20:32;20.80;55.50
46752;DHT22;32497;48.936;9.270;2023-07-31T08:25:34;21.10;54.90
46752;DHT22;32497;48.936;9.270;2023-07-31T08:30:37;20.90;56.20
46752;DHT22;32497;48.936;9.270;2023-07-31T08:35:38;21.00;54.80
46752;DHT22;32497;48.936;9.270;2023-07-31T08:40:39;20.90;55.00
46752;DHT22;32497;48.936;9.270;2023-07-31T08:45:43;22.20;54.70
46752;DHT22;32497;48.936;9.270;2023-07-31T08:50:44;22.00;53.20
46752;DHT22;32497;48.936;9.270;2023-07-31T08:55:47;21.20;54.60
46752;DHT22;32497;48.936;9.270;2023-07-31T09:00:51;21.10;54.40
46752;DHT22;32497;48.936;9.270;2023-07-31T09:05:55;21.40;55.00
46752;DHT22;32497;48.936;9.270;2023-07-31T09:10:59;21.90;52.60
46752;DHT22;32497;48.936;9.270;2023-07-31T09:16:02;21.90;54.40
46752;DHT22;32497;48.936;9.270;2023-07-31T09:21:04;21.90;53.20
46752;DHT22;32497;48.936;9.270;2023-07-31T09:26:06;22.00;52.70
46752;DHT22;32497;48.936;9.270;2023-07-31T09:31:08;21.20;55.90
46752;DHT22;32497;48.936;9.270;2023-07-31T09:36:09;21.60;53.90
46752;DHT22;32497;48.936;9.270;2023-07-31T09:41:11;21.40;55.00
46752;DHT22;32497;48.936;9.270;2023-07-31T09:46:14;21.20;53.80
46752;DHT22;32497;48.936;9.270;2023-07-31T09:51:15;21.00;55.00
46752;DHT22;32497;48.936;9.270;2023-07-31T09:56:18;21.10;54.80
46752;DHT22;32497;48.936;9.270;2023-07-31T10:01:21;20.90;55.00
46752;DHT22;32497;48.936;9.270;2023-07-31T10:06:23;20.90;55.80
46752;DHT22;32497;48.936;9.270;2023-07-31T10:11:26;21.20;55.90
46752;DHT22;32497;48.936;9.270;2023-07-31T10:16:30;21.30;54.20
46752;DHT22;32497;48.936;9.270;2023-07-31T10:21:32;21.20;55.20
46752;DHT22;32497;48.936;9.270;2023-07-31T10:26:33;22.20;52.30
46752;DHT22;32497;48.936;9.270;2023-07-31T10:31:38;22.70;51.30
46752;DHT22;32497;48.936;9.270;2023-07-31T10:36:39;23.20;50.80
46752;DHT22;32497;48.936;9.270;2023-07-31T10:41:40;22.70;50.70
46752;DHT22;32497;48.936;9.270;2023-07-31T10:46:45;22.20;52.60
46752;DHT22;32497;48.936;9.270;2023-07-31T10:51:47;22.20;51.70
46752;DHT22;32497;48.936;9.270;2023-07-31T10:56:50;22.10;51.10
46752;DHT22;32497;48.936;9.270;2023-07-31T11:01:54;21.90;52.20
46752;DHT22;32497;48.936;9.270;2023-07-31T11:06:56;21.70;52.30
46752;DHT22;32497;48.936;9.270;2023-07-31T11:11:57;21.90;52.60
46752;DHT22;32497;48.936;9.270;2023-07-31T11:17:06;22.20;52.30
46752;DHT22;32497;48.936;9.270;2023-07-31T11:22:07;23.00;52.70
46752;DHT22;32497;48.936;9.270;2023-07-31T11:27:08;22.80;50.40
46752;DHT22;32497;48.936;9.270;2023-07-31T11:32:17;22.40;52.00
46752;DHT22;32497;48.936;9.270;2023-07-31T11:37:18;23.30;52.80
46752;DHT22;32497;48.936;9.270;2023-07-31T11:42:19;24.90;45.20
46752;DHT22;32497;48.936;9.270;2023-07-31T11:47:22;25.80;48.70
46752;DHT22;32497;48.936;9.270;2023-07-31T11:52:23;26.20;44.60
46752;DHT22;32497;48.936;9.270;2023-07-31T11:57:25;25.80;44.00
46752;DHT22;32497;48.936;9.270;2023-07-31T12:02:28;25.70;44.30
46752;DHT22;32497;48.936;9.270;2023-07-31T12:07:46;25.40;45.40
46752;DHT22;32497;48.936;9.270;2023-07-31T12:12:59;24.90;46.10
46752;DHT22;32497;48.936;9.270;2023-07-31T12:18:04;25.60;46.60
46752;DHT22;32497;48.936;9.270;2023-07-31T12:23:05;25.60;45.30
46752;DHT22;32497;48.936;9.270;2023-07-31T12:28:07;24.80;49.90
46752;DHT22;32497;48.936;9.270;2023-07-31T12:33:14;24.60;47.70
46752;DHT22;32497;48.936;9.270;2023-07-31T12:38:15;23.80;48.00
46752;DHT22;32497;48.936;9.270;2023-07-31T12:43:16;24.90;47.20
46752;DHT22;32497;48.936;9.270;2023-07-31T12:48:20;25.90;44.10
46752;DHT22;32497;48.936;9.270;2023-07-31T12:53:21;25.30;47.10
46752;DHT22;32497;48.936;9.270;2023-07-31T12:58:22;25.80;43.90
46752;DHT22;32497;48.936;9.270;2023-07-31T13:03:25;25.90;45.60
46752;DHT22;32497;48.936;9.270;2023-07-31T13:08:26;24.50;47.90
46752;DHT22;32497;48.936;9.270;2023-07-31T13:13:27;24.40;46.00
46752;DHT22;32497;48.936;9.270;2023-07-31T13:18:30;23.60;49.40
46752;DHT22;32497;48.936;9.270;2023-07-31T13:23:31;24.10;49.00
46752;DHT22;32497;48.936;9.270;2023-07-31T13:28:32;24.20;47.00
46752;DHT22;32497;48.936;9.270;2023-07-31T13:33:34;24.20;47.40
46752;DHT22;32497;48.936;9.270;2023-07-31T13:38:35;24.20;47.60
46752;DHT22;32497;48.936;9.270;2023-07-31T13:43:36;24.50;45.20
46752;DHT22;32497;48.936;9.270;2023-07-31T13:48:39;24.00;47.10
46752;DHT22;32497;48.936;9.270;2023-07-31T13:53:40;23.70;49.60
46752;DHT22;32497;48.936;9.270;2023-07-31T13:58:41;23.80;48.70
46752;DHT22;32497;48.936;9.270;2023-07-31T14:03:43;23.20;49.80
46752;DHT22;32497;48.936;9.270;2023-07-31T14:08:45;23.10;49.90
46752;DHT22;32497;48.936;9.270;2023-07-31T14:13:46;23.10;50.10
46752;DHT22;32497;48.936;9.270;2023-07-31T14:18:48;23.70;50.30
46752;DHT22;32497;48.936;9.270;2023-07-31T14:23:49;23.90;52.20
46752;DHT22;32497;48.936;9.270;2023-07-31T14:28:50;24.50;51.20
46752;DHT22;32497;48.936;9.270;2023-07-31T14:33:53;24.90;48.30
46752;DHT22;32497;48.936;9.270;2023-07-31T14:38:54;25.30;47.00
46752;DHT22;32497;48.936;9.270;2023-07-31T14:43:55;24.90;47.20
46752;DHT22;32497;48.936;9.270;2023-07-31T14:48:57;25.30;48.60
46752;DHT22;32497;48.936;9.270;2023-07-31T14:53:58;25.60;45.40
46752;DHT22;32497;48.936;9.270;2023-07-31T14:58:59;24.60;47.00
46752;DHT22;32497;48.936;9.270;2023-07-31T15:04:02;24.90;47.30
46752;DHT22;32497;48.936;9.270;2023-07-31T15:09:03;24.80;47.00
46752;DHT22;32497;48.936;9.270;2023-07-31T15:14:04;24.80;50.10
46752;DHT22;32497;48.936;9.270;2023-07-31T15:19:07;24.70;48.80
46752;DHT22;32497;48.936;9.270;2023-07-31T15:24:08;24.60;49.00
46752;DHT22;32497;48.936;9.270;2023-07-31T15:29:09;25.00;50.00
46752;DHT22;32497;48.936;9.270;2023-07-31T15:34:12;25.70;48.90
46752;DHT22;32497;48.936;9.270;2023-07-31T15:39:13;26.50;47.00
46752;DHT22;32497;48.936;9.270;2023-07-31T15:44:14;26.70;43.70
46752;DHT22;32497;48.936;9.270;2023-07-31T15:49:16;26.50;45.70
46752;DHT22;32497;48.936;9.270;2023-07-31T15:54:18;26.10;47.10
46752;DHT22;32497;48.936;9.270;2023-07-31T15:59:19;26.60;46.00
46752;DHT22;32497;48.936;9.270;2023-07-31T16:04:21;26.30;43.90
46752;DHT22;32497;48.936;9.270;2023-07-31T16:09:22;26.00;46.50
46752;DHT22;32497;48.936;9.270;2023-07-31T16:14:23;25.90;44.50
46752;DHT22;32497;48.936;9.270;2023-07-31T16:19:26;25.60;47.60
46752;DHT22;32497;48.936;9.270;2023-07-31T16:24:27;25.20;48.50
46752;DHT22;32497;48.936;9.270;2023-07-31T16:29:28;24.00;49.60
46752;DHT22;32497;48.936;9.270;2023-07-31T16:34:30;23.90;51.30
46752;DHT22;32497;48.936;9.270;2023-07-31T16:39:32;23.70;49.50
46752;DHT22;32497;48.936;9.270;2023-07-31T16:44:33;23.90;49.50
46752;DHT22;32497;48.936;9.270;2023-07-31T16:49:35;23.70;49.20
46752;DHT22;32497;48.936;9.270;2023-07-31T16:54:36;23.90;51.40
46752;DHT22;32497;48.936;9.270;2023-07-31T16:59:37;23.90;49.60
46752;DHT22;32497;48.936;9.270;2023-07-31T17:04:40;23.60;51.00
46752;DHT22;32497;48.936;9.270;2023-07-31T17:09:41;23.60;51.70
46752;DHT22;32497;48.936;9.270;2023-07-31T17:14:42;23.50;51.70
46752;DHT22;32497;48.936;9.270;2023-07-31T17:19:45;23.30;53.50
46752;DHT22;32497;48.936;9.270;2023-07-31T17:24:46;23.20;54.20
46752;DHT22;32497;48.936;9.270;2023-07-31T17:29:47;23.00;59.20
46752;DHT22;32497;48.936;9.270;2023-07-31T17:34:49;22.40;56.20
46752;DHT22;32497;48.936;9.270;2023-07-31T17:39:51;22.00;59.80
46752;DHT22;32497;48.936;9.270;2023-07-31T17:44:52;21.70;60.50
46752;DHT22;32497;48.936;9.270;2023-07-31T17:49:54;21.20;64.70
46752;DHT22;32497;48.936;9.270;2023-07-31T17:54:55;21.20;61.50
46752;DHT22;32497;48.936;9.270;2023-07-31T17:59:56;21.20;61.30
46752;DHT22;32497;48.936;9.270;2023-07-31T18:04:59;21.10;63.50
46752;DHT22;32497;48.936;9.270;2023-07-31T18:10:00;21.00;66.40
46752;DHT22;32497;48.936;9.270;2023-07-31T18:15:01;21.00;66.10
46752;DHT22;32497;48.936;9.270;2023-07-31T18:20:04;21.10;68.10
46752;DHT22;32497;48.936;9.270;2023-07-31T18:25:06;21.00;72.20
46752;DHT22;32497;48.936;9.270;2023-07-31T18:30:08;20.80;72.60
46752;DHT22;32497;48.936;9.270;2023-07-31T18:35:11;20.70;72.90
46752;DHT22;32497;48.936;9.270;2023-07-31T18:40:12;20.60;75.50
46752;DHT22;32497;48.936;9.270;2023-07-31T18:45:13;20.50;75.50
46752;DHT22;32497;48.936;9.270;2023-07-31T18:50:16;20.40;74.30
46752;DHT22;32497;48.936;9.270;2023-07-31T18:55:17;20.30;75.40
46752;DHT22;32497;48.936;9.270;2023-07-31T19:00:18;20.00;82.60
46752;DHT22;32497;48.936;9.270;2023-07-31T19:05:21;19.60;82.20
46752;DHT22;32497;48.936;9.270;2023-07-31T19:10:22;19.20;85.00
46752;DHT22;32497;48.936;9.270;2023-07-31T19:15:23;18.90;85.40
46752;DHT22;32497;48.936;9.270;2023-07-31T19:20:25;18.70;86.50
46752;DHT22;32497;48.936;9.270;2023-07-31T19:25:26;18.60;88.50
46752;DHT22;32497;48.936;9.270;2023-07-31T19:30:27;18.40;87.70
46752;DHT22;32497;48.936;9.270;2023-07-31T19:35:30;18.40;89.30
46752;DHT22;32497;48.936;9.270;2023-07-31T19:40:31;18.30;89.10
46752;DHT22;32497;48.936;9.270;2023-07-31T19:45:32;18.20;88.40
46752;DHT22;32497;48.936;9.270;2023-07-31T19:50:34;18.20;89.70
46752;DHT22;32497;48.936;9.270;2023-07-31T19:55:36;18.30;90.30
46752;DHT22;32497;48.936;9.270;2023-07-31T20:00:37;18.30;90.30
46752;DHT22;32497;48.936;9.270;2023-07-31T20:05:39;18.20;89.90
46752;DHT22;32497;48.936;9.270;2023-07-31T20:10:40;17.90;90.20
46752;DHT22;32497;48.936;9.270;2023-07-31T20:15:42;17.70;86.90
46752;DHT22;32497;48.936;9.270;2023-07-31T20:20:44;17.60;89.60
46752;DHT22;32497;48.936;9.270;2023-07-31T20:25:46;17.50;90.10
46752;DHT22;32497;48.936;9.270;2023-07-31T20:30:47;17.40;90.20
46752;DHT22;32497;48.936;9.270;2023-07-31T20:35:49;17.40;90.40
46752;DHT22;32497;48.936;9.270;2023-07-31T20:40:50;17.40;90.50
46752;DHT22;32497;48.936;9.270;2023-07-31T20:45:51;17.50;90.80
46752;DHT22;32497;48.936;9.270;2023-07-31T20:50:58;17.50;90.40
46752;DHT22;32497;48.936;9.270;2023-07-31T20:55:59;17.50;90.90
46752;DHT22;32497;48.936;9.270;2023-07-31T21:01:00;17.50;91.20
46752;DHT22;32497;48.936;9.270;2023-07-31T21:06:03;17.50;90.80
46752;DHT22;32497;48.936;9.270;2023-07-31T21:11:04;17.50;91.10
46752;DHT22;32497;48.936;9.270;2023-07-31T21:16:05;17.40;91.00
46752;DHT22;32497;48.936;9.270;2023-07-31T21:21:07;17.50;91.30
46752;DHT22;32497;48.936;9.270;2023-07-31T21:26:08;17.50;91.60
46752;DHT22;32497;48.936;9.270;2023-07-31T21:31:10;17.40;90.60
46752;DHT22;32497;48.936;9.270;2023-07-31T21:36:12;17.30;90.60
46752;DHT22;32497;48.936;9.270;2023-07-31T21:41:13;17.40;91.00
46752;DHT22;32497;48.936;9.270;2023-07-31T21:46:14;17.40;90.90
46752;DHT22;32497;48.936;9.270;2023-07-31T21:51:17;17.40;91.00
46752;DHT22;32497;48.936;9.270;2023-07-31T21:56:18;17.30;90.90
46752;DHT22;32497;48.936;9.270;2023-07-31T22:01:19;17.20;90.50
46752;DHT22;32497;48.936;9.270;2023-07-31T22:06:21;17.20;90.40
46752;DHT22;32497;48.936;9.270;2023-07-31T22:11:22;17.20;90.60
46752;DHT22;32497;48.936;9.270;2023-07-31T22:16:23;17.20;91.10
46752;DHT22;32497;48.936;9.270;2023-07-31T22:21:26;17.20;90.60
46752;DHT22;32497;48.936;9.270;2023-07-31T22:26:27;17.20;90.10
46752;DHT22;32497;48.936;9.270;2023-07-31T22:31:28;17.20;90.30
46752;DHT22;32497;48.936;9.270;2023-07-31T22:36:31;17.20;90.40
46752;DHT22;32497;48.936;9.270;2023-07-31T22:41:32;17.20;90.60
46752;DHT22;32497;48.936;9.270;2023-07-31T22:46:33;17.20;90.20
46752;DHT22;32497;48.936;9.270;2023-07-31T22:51:35;17.20;90.20
46752;DHT22;32497;48.936;9.270;2023-07-31T22:56:36;17.10;90.30
46752;DHT22;32497;48.936;9.270;2023-07-31T23:01:37;17.00;90.70
46752;DHT22;32497;48.936;9.270;2023-07-31T23:06:40;16.90;91.20
46752;DHT22;32497;48.936;9.270;2023-07-31T23:11:41;16.90;90.50
46752;DHT22;32497;48.936;9.270;2023-07-31T23:16:42;16.90;90.60
46752;DHT22;32497;48.936;9.270;2023-07-31T23:21:44;16.90;90.70
46752;DHT22;32497;48.936;9.270;2023-07-31T23:26:45;16.90;90.20
46752;DHT22;32497;48.936;9.270;2023-07-31T23:31:46;17.00;90.00
46752;DHT22;32497;48.936;9.270;2023-07-31T23:36:49;17.20;88.50
46752;DHT22;32497;48.936;9.270;2023-07-31T23:41:50;17.20;88.90
46752;DHT22;32497;48.936;9.270;2023-07-31T23:46:51;17.30;88.70
46752;DHT22;32497;48.936;9.270;2023-07-31T23:51:54;17.30;88.30
46752;DHT22;32497;48.936;9.270;2023-07-31T23:56:55;17.20;88.60
